Flight Track Log - Related Links

Times and Time Zones

All times are in EDT time to prevent confusion due to time zone crossing. See the N806LW flight status page for this flight to view local times or setup timezone preferences in your user account.

Time Position Orientation Groundspeed Altitude Reporting Facility
EDT Latitude Longitude Course Direction KTS MPH feet Rate Location/Type
Thu 06:25:39 PM 38.6167 -121.4000 149° Southeast 173 199 2,500  Level Northern TRACON
Thu 06:26:34 PM 38.5667 -121.3667 152° Southeast 177 204 4,100 1,714 Climbing Northern TRACON
Thu 06:27:10 PM 38.5542 -121.3392 120° Southeast 181 208 5,100 1,608 Climbing Oakland Center
Thu 06:28:11 PM 38.5192 -121.2928 134° Southeast 182 209 6,700 1,512 Climbing Oakland Center
Thu 06:29:13 PM 38.4833 -121.2428 132° Southeast 188 216 8,200 1,561 Climbing Oakland Center
Thu 06:30:14 PM 38.4494 -121.1950 132° Southeast 185 213 9,900 1,512 Climbing Oakland Center
Thu 06:31:00 PM 38.3059 -121.1086 149° Southeast  Level FlightAware
Thu 06:31:16 PM 38.4186 -121.1531 133° Southeast 175 201 11,300  Level Oakland Center
Thu 06:32:17 PM 38.3869 -121.1033 129° Southeast 177 204 12,800 1,610 Climbing Oakland Center
Thu 06:33:19 PM 38.3506 -121.0467 129° Southeast 174 200 14,600 1,561 Climbing Oakland Center
Thu 06:34:20 PM 38.3219 -121.0003 128° Southeast 169 194 16,000 1,268 Climbing Oakland Center
Thu 06:35:22 PM 38.2911 -120.9542 130° Southeast 169 194 17,200 1,171 Climbing Oakland Center
Thu 06:36:23 PM 38.2581 -120.9069 132° Southeast 176 203 18,400 878 Climbing Oakland Center
Thu 06:37:25 PM 38.2244 -120.8578 131° Southeast 181 208 19,000 387 Climbing Oakland Center
Thu 06:38:27 PM 38.1811 -120.8000 134° Southeast 215 247 19,200 927 Climbing Oakland Center
Thu 06:39:28 PM 38.1411 -120.7439 132° Southeast 217 250 20,900 1,366 Climbing Oakland Center
Thu 06:40:30 PM 38.1131 -120.6961 127° Southeast 177 204 22,000 1,024 Climbing Oakland Center
Thu 06:41:31 PM 38.0653 -120.6511 143° Southeast 177 204 23,000 488 Climbing Oakland Center
Thu 06:42:33 PM 38.0117 -120.6211 156° South 201 231 23,000  Level Oakland Center
Thu 06:43:34 PM 37.9547 -120.5775 149° Southeast 235 270 23,000  Level Oakland Center
Thu 06:44:36 PM 37.8953 -120.5336 150° Southeast 246 283 23,000 677 Level Oakland Center
Thu 06:45:38 PM 37.8397 -120.4983 153° Southeast 224 258 24,400 1,268 Climbing Oakland Center
Thu 06:46:39 PM 37.7961 -120.4639 148° Southeast 189 217 25,600 976 Climbing Oakland Center
Thu 06:47:41 PM 37.7519 -120.4344 152° Southeast 179 206 26,400 683 Climbing Oakland Center
Thu 06:48:42 PM 37.7067 -120.4050 153° Southeast 181 208 27,000 293 Climbing Oakland Center
Thu 06:49:44 PM 37.6444 -120.3603 150° Southeast 212 244 27,000  Level Oakland Center
Thu 06:50:45 PM 37.5833 -120.3214 153° Southeast 241 277 27,000  Level Oakland Center
Thu 06:51:47 PM 37.5222 -120.2786 151° Southeast 250 288 27,000  Level Oakland Center
Thu 06:52:48 PM 37.4600 -120.2358 151° Southeast 253 291 27,000  Level Oakland Center
Thu 06:54:00 PM 37.3819 -120.1919 156° South  Level FlightAware
Thu 06:54:37 PM 37.3531 -120.1675 156° South 256 295 27,000  Level Los Center
Thu 06:55:40 PM 37.2911 -120.1269 152° Southeast 254 292 27,000  Level Los Center
Thu 06:56:41 PM 37.2292 -120.0842 151° Southeast 254 292 27,000  Level Los Center
Thu 06:57:44 PM 37.1561 -120.0319 150° Southeast 253 291 27,000  Level Los Center
Thu 06:58:46 PM 37.0947 -119.9911 152° Southeast 252 290 27,000  Level Los Center
Thu 06:59:48 PM 37.0319 -119.9461 150° Southeast 255 293 27,000  Level Los Center
Thu 07:00:50 PM 36.9711 -119.9033 151° Southeast 254 292 27,000  Level Los Center
Thu 07:01:52 PM 36.9092 -119.8628 152° Southeast 251 289 27,000  Level Los Center
Thu 07:02:54 PM 36.8367 -119.8125 151° Southeast 248 285 27,000  Level Los Center
Thu 07:03:56 PM 36.7864 -119.7781 151° Southeast 254 292 27,000  Level Los Center
Thu 07:04:59 PM 36.7119 -119.7300 153° Southeast 252 290 27,000  Level Los Center
Thu 07:06:01 PM 36.6506 -119.6867 150° Southeast 252 290 27,000  Level Los Center
Thu 07:07:03 PM 36.5892 -119.6467 152° Southeast 250 288 27,000  Level Los Center
Thu 07:08:05 PM 36.5394 -119.6150 153° Southeast 250 288 27,000  Level Los Center
Thu 07:09:07 PM 36.4547 -119.5550 150° Southeast 251 289 27,000  Level Los Center
Thu 07:10:09 PM 36.3931 -119.5172 154° Southeast 248 285 27,000  Level Los Center
Thu 07:11:23 PM 36.3322 -119.4744 150° Southeast 250 288 27,000  Level Los Center
Thu 07:12:18 PM 36.2567 -119.4264 153° Southeast 253 291 27,000  Level Oakland Center
Thu 07:13:20 PM 36.1947 -119.3864 152° Southeast 251 289 27,000  Level Oakland Center
Thu 07:14:21 PM 36.1331 -119.3419 150° Southeast 254 292 27,000  Level Oakland Center
Thu 07:15:23 PM 36.0700 -119.3042 154° Southeast 254 292 27,000  Level Oakland Center
Thu 07:16:25 PM 36.0086 -119.2622 151° Southeast 251 289 27,000  Level Oakland Center
Thu 07:17:26 PM 35.9481 -119.2211 151° Southeast 249 287 27,000  Level Oakland Center
Thu 07:18:28 PM 35.8842 -119.1817 153° Southeast 254 292 27,000  Level Oakland Center
Thu 07:19:29 PM 35.8233 -119.1411 152° Southeast 251 289 27,000  Level Oakland Center
Thu 07:20:31 PM 35.7489 -119.0925 152° Southeast 252 290 27,000  Level Oakland Center
Thu 07:21:32 PM 35.6869 -119.0533 153° Southeast 252 290 27,000  Level Oakland Center
Thu 07:22:34 PM 35.6256 -119.0097 150° Southeast 253 291 27,000  Level Oakland Center
Thu 07:23:36 PM 35.5631 -118.9728 154° Southeast 251 289 27,000  Level Oakland Center
Thu 07:24:37 PM 35.5000 -118.9317 152° Southeast 253 291 27,000  Level Oakland Center
Thu 07:25:39 PM 35.4378 -118.8878 150° Southeast 255 293 27,000  Level Oakland Center
Thu 07:26:41 PM 35.3744 -118.8500 154° Southeast 253 291 27,000  Level Oakland Center
Thu 07:28:10 PM 35.2897 -118.7914 151° Southeast 252 290 27,000  Level Los Center
Thu 07:29:12 PM 35.2136 -118.7461 154° Southeast 254 292 27,000  Level Los Center
Thu 07:30:14 PM 35.1628 -118.7125 152° Southeast 255 293 27,000  Level Los Center
Thu 07:31:17 PM 35.0889 -118.6636 152° Southeast 251 289 27,000  Level Los Center
Thu 07:32:31 PM 35.0250 -118.6264 154° Southeast 253 291 27,000  Level Los Center
Thu 07:33:33 PM 34.9558 -118.5344 133° Southeast 265 305 27,000  Level Los Center
Thu 07:34:35 PM 34.9100 -118.4656 129° Southeast 263 303 27,000  Level Los Center
Thu 07:35:37 PM 34.8622 -118.4022 133° Southeast 258 297 27,000  Level Los Center
Thu 07:36:40 PM 34.8175 -118.3328 128° Southeast 260 299 27,000  Level Los Center
Thu 07:37:42 PM 34.7706 -118.2653 130° Southeast 262 302 27,000  Level Los Center
Thu 07:38:44 PM 34.7219 -118.1997 132° Southeast 263 303 27,000  Level Los Center
Thu 07:39:46 PM 34.6683 -118.1169 128° Southeast 262 302 27,000  Level Los Center
Thu 07:40:48 PM 34.6225 -118.0489 129° Southeast 263 303 27,000  Level Los Center
Thu 07:41:50 PM 34.5972 -117.9636 110° East 272 313 27,000  Level Los Center
Thu 07:42:53 PM 34.5753 -117.8775 107° East 271 312 27,000  Level Los Center
Thu 07:44:06 PM 34.5486 -117.7947 111° Southeast 267 307 27,000  Level Los Center
Thu 07:45:09 PM 34.5144 -117.6756 109° East 270 311 27,000  Level Los Center
Thu 07:46:11 PM 34.4892 -117.5908 110° East 270 311 27,000  Level Los Center
Thu 07:47:13 PM 34.4622 -117.5067 111° Southeast 269 310 27,000  Level Los Center
Thu 07:48:15 PM 34.4386 -117.4214 109° East 269 310 27,000  Level Los Center
Thu 07:49:18 PM 34.4122 -117.3361 111° Southeast 272 313 27,000  Level Los Center
Thu 07:50:19 PM 34.3856 -117.2514 111° Southeast 272 313 27,000  Level Los Center
Thu 07:51:22 PM 34.3561 -117.1492 109° East 273 314 27,000  Level Los Center
Thu 07:52:24 PM 34.3281 -117.0656 112° Southeast 271 312 27,000  Level Los Center
Thu 07:53:26 PM 34.3033 -116.9797 109° East 271 312 27,000  Level Los Center
Thu 07:54:28 PM 34.2781 -116.8936 110° East 274 315 27,000  Level Los Center
Thu 07:55:42 PM 34.2447 -116.7944 112° Southeast 267 307 27,000  Level Los Center
Thu 07:56:57 PM 34.2153 -116.6906 109° East 274 315 27,000  Level Los Center
Thu 07:57:59 PM 34.1817 -116.5908 112° Southeast 268 308 27,000  Level Los Center
Thu 07:59:01 PM 34.1575 -116.5044 109° East 271 312 27,000  Level Los Center
Thu 08:00:04 PM 34.1306 -116.4192 111° Southeast 274 315 27,000  Level Los Center
Thu 08:01:06 PM 34.0997 -116.3286 112° Southeast 268 308 27,000  Level Los Center
Thu 08:02:09 PM 34.0753 -116.2425 109° East 270 311 27,000  Level Los Center
Thu 08:03:10 PM 34.0469 -116.1578 112° Southeast 272 313 27,000  Level Los Center
Thu 08:04:12 PM 34.0158 -116.0564 110° East 270 311 27,000  Level Los Center
Thu 08:05:14 PM 33.9950 -115.9886 110° East 271 312 27,000  Level Los Center
Thu 08:06:16 PM 33.9600 -115.8881 113° Southeast 271 312 27,000  Level Los Center
Thu 08:07:18 PM 33.9350 -115.8031 109° East 268 308 27,000 -290 Level Los Center
Thu 08:08:20 PM 33.9125 -115.7350 112° Southeast 271 312 26,400 -1,200 Descending Los Center
Thu 08:09:23 PM 33.8753 -115.6231 112° Southeast 296 341 24,500 -1,632 Descending Los Center
Thu 08:10:25 PM 33.8406 -115.5181 112° Southeast 280 322 23,000 -726 Descending Los Center
Thu 08:11:27 PM 33.8161 -115.4353 110° East 266 306 23,000  Level Los Center
Thu 08:12:28 PM 33.7950 -115.3711 112° Southeast 259 298 23,000  Level Los Center
Thu 08:13:31 PM 33.7625 -115.2722 112° Southeast 262 302 23,000  Level Los Center
Thu 08:14:33 PM 33.7358 -115.1908 111° Southeast 261 300 23,000  Level Los Center
Thu 08:15:35 PM 33.7097 -115.1092 111° Southeast 262 302 23,000  Level Los Center
Thu 08:16:37 PM 33.6858 -115.0072 106° East 265 305 23,000  Level Los Center
Thu 08:17:39 PM 33.6772 -114.9206 97° East 264 304 23,000  Level Los Center
Thu 08:18:42 PM 33.6631 -114.8350 101° East 263 303 23,000  Level Los Center
Thu 08:19:44 PM 33.6494 -114.7497 101° East 261 300 23,000  Level Los Center
Thu 08:20:46 PM 33.6383 -114.6653 99° East 258 297 23,000  Level Los Center
Thu 08:21:47 PM 33.6319 -114.5956 96° East 260 299 23,000  Level Los Center
Thu 08:22:50 PM 33.6386 -114.4739 86° East 262 302 23,000  Level Los Center
Thu 08:23:52 PM 33.6339 -114.3872 94° East 259 298 23,000 -96 Level Los Center
Thu 08:24:55 PM 33.6322 -114.3000 91° East 260 299 22,800 -823 Descending Los Center
Thu 08:25:56 PM 33.6350 -114.2094 88° East 286 329 21,300 -1,659 Descending Los Center
Thu 08:26:58 PM 33.6300 -114.0869 93° East 303 349 19,400 -1,560 Descending Los Center
Thu 08:27:36 PM 33.6308 -114.0417 89° East 305 351 18,700 -1,636 Descending Albuquerque Center
Thu 08:28:37 PM 33.6311 -113.9278 90° East 288 331 16,700 -1,756 Descending Albuquerque Center
Thu 08:29:39 PM 33.6306 -113.8364 90° East 277 319 15,100 -1,839 Descending Albuquerque Center
Thu 08:30:41 PM 33.6275 -113.7469 92° East 270 311 12,900 -1,951 Descending Albuquerque Center
Thu 08:31:42 PM 33.6275 -113.6567 90° East 271 312 11,100 -976 Descending Albuquerque Center
Thu 08:32:44 PM 33.6250 -113.5739 92° East 254 292 10,900 -97 Descending Albuquerque Center
Thu 08:33:46 PM 33.6256 -113.4947 89° East 242 278 10,900  Level Albuquerque Center
Thu 08:34:48 PM 33.6231 -113.3989 92° East 242 278 10,900  Level Albuquerque Center
Thu 08:35:49 PM 33.6211 -113.3181 92° East 242 278 10,900  Level Albuquerque Center
Thu 08:36:51 PM 33.6089 -113.2394 101° East 240 276 10,900  Level Albuquerque Center
Thu 08:37:53 PM 33.6031 -113.1611 95° East 239 275 10,900 49 Level Albuquerque Center
Thu 08:38:53 PM 33.6119 -113.0725 83° East 244 281 11,000 50 Climbing Albuquerque Center
Thu 08:39:54 PM 33.6131 -112.9931 89° East 240 276 11,000 -246 Level Albuquerque Center
Thu 08:40:55 PM 33.6475 -112.9208 60° Northeast 254 292 10,500 -1,041 Descending Albuquerque Center
Thu 08:41:55 PM 33.6831 -112.8433 61° Northeast 269 310 8,900 -1,636 Descending Albuquerque Center
Thu 08:42:56 PM 33.7192 -112.7578 63° Northeast 268 308 7,200 -1,426 Descending Albuquerque Center
Thu 08:43:57 PM 33.7514 -112.6858 62° Northeast 239 275 6,000 -605 Descending Albuquerque Center
Thu 08:45:05 PM 33.7644 -112.6083 79° East 225 259 5,900 -46 Descending Albuquerque Center
Thu 08:46:07 PM 33.7639 -112.5322 90° East 226 260 5,900  Level Albuquerque Center
Thu 08:47:09 PM 33.7625 -112.4561 91° East 228 262 5,900  Level Albuquerque Center
Thu 08:48:10 PM 33.7633 -112.3797 89° East 230 265 5,900  Level Albuquerque Center
Thu 08:49:12 PM 33.7625 -112.2875 91° East 230 265 5,900  Level Albuquerque Center
Thu 08:50:14 PM 33.7522 -112.2172 100° East 216 249 5,900  Level Albuquerque Center
Thu 08:51:16 PM 33.7392 -112.1481 103° East 213 245 5,900 -49 Level Albuquerque Center
Thu 08:52:17 PM 33.7292 -112.0800 100° East 209 241 5,800 -390 Descending Albuquerque Center
Thu 08:53:19 PM 33.7114 -112.0128 108° East 213 245 5,100 -871 Descending Albuquerque Center
Thu 08:54:21 PM 33.6831 -111.9517 119° Southeast 211 243 4,000 -1,258 Descending Albuquerque Center
Thu 08:55:23 PM 33.6686 -111.8972 108° East 145 167 2,500 -1,065 Descending Albuquerque Center
Thu 08:56:25 PM 33.6414 -111.8892 166° South 126 145 1,800 -537 Descending Albuquerque Center
Thu 08:57:26 PM 33.6236 -111.9086 222° Southwest 105 121 1,400 -393 Descending Albuquerque Center

Login

Don't have an account? Register now (free) for customized features, flight alerts, and more!